Bridgeport, New York
Current Conditions -  °F | °C
As of 5:54 PM on Saturday 22 Nov 2014 (Local Time) from KSYR Reporting Station
Light Rain Light Rain  
Wind Chill: 38°   Ceiling: 2300
Heat Index: 44°   Visibility: 10mi
Dew Point: 36°   Wind: 12mph
Humidity: 73%   Direction: 210°SSW
Pressure: 30.02"   Gusts: NA
Location:  43.15°N, 75.97°W
Report Text: KSYR 222254Z 21010KT 10SM -RA OVC023 07/02 A3002 RMK AO2 RAE17B33 SLP167 P0000 T00670022 $
Loading
Personal Weather Stations






























Interactive Weather Map New forecast layout! Learn more

10-Day Weather Forecast

Advertisements
Track Severe Weather on mobile